Time;durP1;ratioP1;P1;durP2;ratioP2;P2;SDS_P1;SDS_P2;PMS_P1;PMS_P2;Temp;Humidity;BMP_temperature;BMP_pressure;BME280_temperature;BME280_humidity;BME280_pressure;Samples;Min_cycle;Max_cycle;Signal;HPM_P1;HPM_P2
2021/04/08 00:01:20;;;;;;;6.45;3.53;;;0.60;99.90;;;;;;5059168;28;20037;-73
2021/04/08 00:03:46;;;;;;;6.75;3.33;;;0.60;99.90;;;;;;5058624;28;20089;-73
2021/04/08 00:06:13;;;;;;;7.18;3.78;;;0.70;99.90;;;;;;5056752;28;20970;-73
2021/04/08 00:08:39;;;;;;;11.85;3.72;;;0.70;99.90;;;;;;5057803;28;20024;-73
2021/04/08 00:11:05;;;;;;;10.52;4.50;;;0.60;99.90;;;;;;5058526;28;20550;-73
2021/04/08 00:13:30;;;;;;;6.85;3.75;;;0.70;99.90;;;;;;5060008;28;20028;-73
2021/04/08 00:15:56;;;;;;;6.95;3.53;;;0.70;99.90;;;;;;5058953;28;20056;-73
2021/04/08 00:18:22;;;;;;;10.38;3.75;;;0.60;99.90;;;;;;5042454;28;20546;-73
2021/04/08 00:20:48;;;;;;;8.32;4.53;;;0.60;99.90;;;;;;5059959;28;20039;-73
2021/04/08 00:23:14;;;;;;;6.85;4.28;;;0.60;99.90;;;;;;5063545;28;20056;-73
2021/04/08 00:25:39;;;;;;;13.05;4.50;;;0.60;99.90;;;;;;5063299;28;20033;-73
2021/04/08 00:28:06;;;;;;;7.00;4.32;;;0.60;99.90;;;;;;5056654;28;20062;-73
2021/04/08 00:30:42;;;;;;;8.40;4.68;;;0.60;99.90;;;;;;5062222;28;20595;-73
2021/04/08 00:33:12;;;;;;;10.13;4.32;;;0.60;99.90;;;;;;5063610;28;20024;-73
2021/04/08 00:35:38;;;;;;;6.97;4.28;;;0.60;99.90;;;;;;5062789;28;20479;-73
2021/04/08 00:38:04;;;;;;;9.75;4.28;;;0.60;99.90;;;;;;5059885;28;20085;-73
2021/04/08 00:40:30;;;;;;;7.50;4.30;;;0.60;99.90;;;;;;5058154;28;20033;-73
2021/04/08 00:42:56;;;;;;;8.95;5.22;;;0.60;99.90;;;;;;5062829;28;20028;-72
2021/04/08 00:45:22;;;;;;;8.70;4.07;;;0.60;99.90;;;;;;5061684;28;20041;-72
2021/04/08 00:47:48;;;;;;;5.97;3.92;;;0.60;99.90;;;;;;5059415;28;20028;-73
2021/04/08 00:50:16;;;;;;;8.55;4.72;;;0.60;99.90;;;;;;5095265;28;20028;-73
2021/04/08 00:52:44;;;;;;;12.63;5.20;;;0.50;99.90;;;;;;5062531;28;20028;-73
2021/04/08 00:55:11;;;;;;;8.63;4.65;;;0.50;99.90;;;;;;5058514;28;20025;-73
2021/04/08 00:57:37;;;;;;;6.90;4.45;;;0.60;99.90;;;;;;5061146;28;20039;-73
2021/04/08 01:00:06;;;;;;;5.53;4.07;;;0.50;99.90;;;;;;5060524;28;20029;-73
2021/04/08 01:02:32;;;;;;;9.00;4.07;;;0.50;99.90;;;;;;5055846;28;20024;-73
2021/04/08 01:04:59;;;;;;;10.13;5.00;;;0.50;99.90;;;;;;5060676;28;20036;-73
2021/04/08 01:07:25;;;;;;;8.40;4.22;;;0.50;99.90;;;;;;5062419;28;20033;-73
2021/04/08 01:09:54;;;;;;;9.98;4.25;;;0.50;99.90;;;;;;5061132;28;20082;-73
2021/04/08 01:12:23;;;;;;;11.27;4.88;;;0.50;99.90;;;;;;5060727;28;20047;-73
2021/04/08 01:14:49;;;;;;;11.20;4.65;;;0.50;99.90;;;;;;5062570;28;20472;-73
2021/04/08 01:17:24;;;;;;;10.02;4.20;;;0.50;99.90;;;;;;5059562;28;20082;-73
2021/04/08 01:19:56;;;;;;;8.18;4.90;;;0.50;99.90;;;;;;5057336;28;20139;-73
2021/04/08 01:22:43;;;;;;;5.72;4.20;;;0.50;99.90;;;;;;5061143;28;20033;-72
2021/04/08 01:25:27;;;;;;;8.32;4.00;;;0.50;99.90;;;;;;5062628;28;20086;-73
2021/04/08 01:28:21;;;;;;;10.18;5.35;;;0.50;99.90;;;;;;5058176;28;20082;-72
2021/04/08 01:30:49;;;;;;;12.07;5.10;;;0.50;99.90;;;;;;5059394;28;20082;-73
2021/04/08 01:33:31;;;;;;;8.73;4.53;;;0.50;99.90;;;;;;5062031;28;20503;-73
2021/04/08 01:36:00;;;;;;;9.27;4.85;;;0.50;99.90;;;;;;5059395;28;20075;-73
2021/04/08 01:38:30;;;;;;;9.48;4.35;;;0.50;99.90;;;;;;5058687;28;20043;-73
2021/04/08 01:40:57;;;;;;;6.20;4.05;;;0.40;99.90;;;;;;5061088;28;20040;-72
2021/04/08 01:43:27;;;;;;;8.27;4.00;;;0.50;99.90;;;;;;5062022;28;20041;-72
2021/04/08 01:45:56;;;;;;;10.52;4.57;;;0.50;99.90;;;;;;5058026;28;20037;-73
2021/04/08 01:48:22;;;;;;;8.48;4.60;;;0.40;99.90;;;;;;5059225;28;20616;-73
2021/04/08 01:50:52;;;;;;;8.73;4.60;;;0.50;99.90;;;;;;5059622;28;20042;-73
2021/04/08 01:53:19;;;;;;;6.63;4.00;;;0.50;99.90;;;;;;5061321;28;20024;-73
2021/04/08 01:55:45;;;;;;;8.35;4.35;;;0.40;99.90;;;;;;5061004;28;20035;-73
2021/04/08 01:58:12;;;;;;;6.28;4.00;;;0.40;99.90;;;;;;5058127;28;20495;-73
2021/04/08 02:00:39;;;;;;;6.43;3.88;;;0.40;99.90;;;;;;5060410;28;20031;-72
2021/04/08 02:03:05;;;;;;;5.68;3.80;;;0.40;99.90;;;;;;5058811;28;20059;-72
2021/04/08 02:05:32;;;;;;;7.60;4.20;;;0.30;99.90;;;;;;5057063;28;20040;-73
2021/04/08 02:07:58;;;;;;;10.23;4.32;;;0.40;99.90;;;;;;5060389;28;20028;-73
2021/04/08 02:10:27;;;;;;;6.40;3.90;;;0.30;99.90;;;;;;5060438;28;20103;-73
2021/04/08 02:12:55;;;;;;;11.23;4.55;;;0.30;99.90;;;;;;5089782;28;20111;-73
2021/04/08 02:15:23;;;;;;;8.85;5.00;;;0.30;99.90;;;;;;5059970;28;20430;-73
2021/04/08 02:18:01;;;;;;;6.43;4.45;;;0.30;99.90;;;;;;5061109;28;20504;-73
2021/04/08 02:20:29;;;;;;;9.13;4.88;;;0.30;99.90;;;;;;5061352;28;20034;-73
2021/04/08 02:22:57;;;;;;;10.85;5.30;;;0.30;99.90;;;;;;5060079;28;20035;-73
2021/04/08 02:25:26;;;;;;;6.93;4.40;;;0.30;99.90;;;;;;5058609;28;20491;-73
2021/04/08 02:27:54;;;;;;;11.50;4.75;;;0.30;99.90;;;;;;5058507;28;20040;-72
2021/04/08 02:30:23;;;;;;;10.77;5.50;;;0.30;99.90;;;;;;5060724;28;20601;-73
2021/04/08 02:32:50;;;;;;;8.98;5.80;;;0.30;99.90;;;;;;5058191;28;20033;-73
2021/04/08 02:35:17;;;;;;;5.93;3.80;;;0.20;99.90;;;;;;5060418;28;20031;-73
2021/04/08 02:37:47;;;;;;;8.90;4.60;;;0.30;99.90;;;;;;5060186;28;20028;-73
2021/04/08 02:40:18;;;;;;;8.95;5.15;;;0.30;99.90;;;;;;5056978;28;20112;-73
2021/04/08 02:42:45;;;;;;;9.18;5.13;;;0.30;99.90;;;;;;5058712;28;20462;-73
2021/04/08 02:45:11;;;;;;;8.02;5.05;;;0.30;99.90;;;;;;5061092;28;20052;-73
2021/04/08 02:47:37;;;;;;;13.50;5.30;;;0.30;99.90;;;;;;5056827;28;20024;-73
2021/04/08 02:50:05;;;;;;;9.65;4.68;;;0.30;99.90;;;;;;5060790;28;20490;-73
2021/04/08 02:53:07;;;;;;;14.23;5.97;;;0.30;99.90;;;;;;5058527;28;20430;-73
2021/04/08 02:55:43;;;;;;;10.57;5.55;;;0.30;99.90;;;;;;5056856;28;20029;-72
2021/04/08 02:58:13;;;;;;;9.73;5.03;;;0.30;99.90;;;;;;5058522;28;20055;-73
2021/04/08 03:00:54;;;;;;;9.68;5.45;;;0.30;99.90;;;;;;5059561;28;20046;-73
2021/04/08 03:03:23;;;;;;;7.18;4.57;;;0.40;99.90;;;;;;5058180;28;20382;-73
2021/04/08 03:05:50;;;;;;;10.20;4.90;;;0.40;99.90;;;;;;5058988;28;20444;-73
2021/04/08 03:08:19;;;;;;;8.32;4.95;;;0.30;99.90;;;;;;5058446;28;20487;-73
2021/04/08 03:10:46;;;;;;;9.30;4.40;;;0.30;99.90;;;;;;5059752;28;20071;-73
2021/04/08 03:13:15;;;;;;;10.27;4.50;;;0.30;99.90;;;;;;5056272;28;20036;-73
2021/04/08 03:15:42;;;;;;;9.95;4.63;;;0.30;99.90;;;;;;5058012;28;20025;-73
2021/04/08 03:18:19;;;;;;;10.23;4.82;;;0.20;99.90;;;;;;5055813;28;20361;-73
2021/04/08 03:20:53;;;;;;;12.30;4.60;;;0.20;99.90;;;;;;5057082;28;20523;-73
2021/04/08 03:23:21;;;;;;;8.27;5.05;;;0.20;99.90;;;;;;5090354;28;20044;-73
2021/04/08 03:25:49;;;;;;;8.52;4.53;;;0.20;99.90;;;;;;5058704;28;20509;-73
2021/04/08 03:28:16;;;;;;;9.02;4.93;;;0.20;99.90;;;;;;5092147;28;20063;-73
2021/04/08 03:30:43;;;;;;;8.85;4.95;;;0.20;99.90;;;;;;5057837;28;20517;-73
2021/04/08 03:33:11;;;;;;;7.28;4.32;;;0.20;99.90;;;;;;5060396;28;20398;-73
2021/04/08 03:35:37;;;;;;;14.60;4.85;;;0.20;99.90;;;;;;5057840;28;20033;-73
2021/04/08 03:38:06;;;;;;;6.45;4.10;;;0.20;99.90;;;;;;5058455;28;20043;-73
2021/04/08 03:40:32;;;;;;;7.57;4.43;;;0.10;99.90;;;;;;5058635;28;20029;-73
2021/04/08 03:42:58;;;;;;;7.55;4.32;;;0.10;99.90;;;;;;5041281;28;20044;-73
2021/04/08 03:45:24;;;;;;;9.40;4.28;;;0.10;99.90;;;;;;5058952;28;20024;-73
2021/04/08 03:47:50;;;;;;;9.30;5.05;;;0.10;99.90;;;;;;5057643;28;20036;-73
2021/04/08 03:50:17;;;;;;;7.43;4.22;;;0.10;99.90;;;;;;5059755;28;20055;-73
2021/04/08 03:52:44;;;;;;;9.15;5.00;;;0.10;99.90;;;;;;5061311;28;20029;-73
2021/04/08 03:55:11;;;;;;;8.32;4.57;;;0.10;99.90;;;;;;5062461;28;20396;-73
2021/04/08 03:57:40;;;;;;;10.50;4.68;;;0.10;99.90;;;;;;5062172;28;20025;-74
2021/04/08 04:00:11;;;;;;;6.97;4.13;;;0.00;99.90;;;;;;5064405;28;20548;-73
2021/04/08 04:02:40;;;;;;;11.60;4.28;;;0.10;99.90;;;;;;5092239;28;20041;-73
2021/04/08 04:05:08;;;;;;;8.88;4.40;;;0.00;99.90;;;;;;5063056;28;20084;-73
2021/04/08 04:07:36;;;;;;;9.30;3.90;;;0.10;99.90;;;;;;5059543;28;20446;-73
2021/04/08 04:10:03;;;;;;;8.07;4.10;;;0.10;99.90;;;;;;5063640;28;20037;-73
2021/04/08 04:12:29;;;;;;;6.45;4.10;;;0.10;99.90;;;;;;5061115;28;20079;-73
2021/04/08 04:14:59;;;;;;;8.02;3.72;;;0.10;99.90;;;;;;5063512;28;20025;-73
2021/04/08 04:17:29;;;;;;;7.72;4.30;;;0.10;99.90;;;;;;5063194;28;20483;-73
2021/04/08 04:19:56;;;;;;;10.50;4.25;;;0.10;99.90;;;;;;5060371;28;20117;-73
2021/04/08 04:22:22;;;;;;;6.57;3.85;;;0.10;99.90;;;;;;5060753;28;20029;-73
2021/04/08 04:24:49;;;;;;;8.35;4.57;;;0.10;99.90;;;;;;5063952;28;20028;-73
2021/04/08 04:27:14;;;;;;;8.85;4.10;;;0.10;99.90;;;;;;5060436;28;20405;-73
2021/04/08 04:29:40;;;;;;;7.60;4.68;;;0.10;99.90;;;;;;5062340;28;20025;-73
2021/04/08 04:32:10;;;;;;;9.68;4.68;;;0.10;99.90;;;;;;5040582;28;20025;-73
2021/04/08 04:34:40;;;;;;;9.02;4.55;;;0.20;99.90;;;;;;5059801;28;20432;-73
2021/04/08 04:37:05;;;;;;;7.28;4.38;;;0.20;99.90;;;;;;5059854;28;20032;-73
2021/04/08 04:39:31;;;;;;;10.98;4.95;;;0.20;99.90;;;;;;5063633;28;20027;-73
2021/04/08 04:41:57;;;;;;;5.95;3.83;;;0.20;99.90;;;;;;5061397;28;20098;-73
2021/04/08 04:44:24;;;;;;;11.98;4.50;;;0.20;99.90;;;;;;5061961;28;20040;-73
2021/04/08 04:46:51;;;;;;;9.30;4.18;;;0.20;99.90;;;;;;5062687;28;20025;-73
2021/04/08 04:49:17;;;;;;;11.13;4.50;;;0.10;99.90;;;;;;5062218;28;20032;-73
2021/04/08 04:51:42;;;;;;;10.77;5.00;;;0.10;99.90;;;;;;5061373;28;20029;-73
2021/04/08 04:54:08;;;;;;;12.55;4.25;;;0.10;99.90;;;;;;5063506;28;20032;-73
2021/04/08 04:56:34;;;;;;;11.43;4.95;;;0.20;99.90;;;;;;5059845;28;20431;-73
2021/04/08 04:58:59;;;;;;;7.13;4.40;;;0.10;99.90;;;;;;5059070;28;20411;-73
2021/04/08 05:01:25;;;;;;;10.05;4.60;;;0.10;99.90;;;;;;5041947;28;20033;-73
2021/04/08 05:03:51;;;;;;;8.90;4.78;;;0.10;99.90;;;;;;5059055;28;20079;-73
2021/04/08 05:06:17;;;;;;;11.02;4.90;;;0.10;99.90;;;;;;5060889;28;20025;-73
2021/04/08 05:08:42;;;;;;;8.13;3.60;;;0.10;99.90;;;;;;5061557;28;20036;-73
2021/04/08 05:11:08;;;;;;;12.00;4.80;;;0.10;99.90;;;;;;5061032;28;20640;-73
2021/04/08 05:13:33;;;;;;;10.52;4.55;;;0.10;99.90;;;;;;5062731;28;20131;-73
2021/04/08 05:15:59;;;;;;;7.47;4.32;;;0.00;99.90;;;;;;5061859;28;20040;-73
2021/04/08 05:18:25;;;;;;;10.65;4.20;;;0.00;99.90;;;;;;5059108;28;20564;-73
2021/04/08 05:20:50;;;;;;;10.05;4.25;;;-0.10;99.90;;;;;;5058073;28;20487;-73
2021/04/08 05:23:16;;;;;;;9.93;4.38;;;-0.10;99.90;;;;;;5062475;28;20424;-73
2021/04/08 05:25:42;;;;;;;8.50;4.43;;;-0.20;99.90;;;;;;5059763;28;20036;-73
2021/04/08 05:28:07;;;;;;;10.00;4.28;;;-0.10;99.90;;;;;;5059027;28;20033;-73
2021/04/08 05:30:33;;;;;;;5.70;3.53;;;-0.10;99.90;;;;;;5055451;28;20054;-73
2021/04/08 05:32:59;;;;;;;10.48;4.57;;;-0.20;99.90;;;;;;5061667;28;20388;-73
2021/04/08 05:35:25;;;;;;;8.38;4.57;;;-0.20;99.90;;;;;;5061116;28;20028;-73
2021/04/08 05:37:50;;;;;;;7.57;3.90;;;-0.10;99.90;;;;;;5062066;28;20537;-73
2021/04/08 05:40:17;;;;;;;10.13;4.97;;;0.00;99.90;;;;;;5060788;28;20025;-73
2021/04/08 05:42:45;;;;;;;10.25;5.05;;;0.00;99.90;;;;;;5060572;28;20085;-73
2021/04/08 05:45:13;;;;;;;12.45;4.13;;;0.10;99.90;;;;;;5062590;28;20029;-73
2021/04/08 05:47:39;;;;;;;7.70;4.15;;;0.20;99.90;;;;;;5057728;28;20549;-73
2021/04/08 05:50:05;;;;;;;13.07;4.18;;;0.30;99.90;;;;;;5062130;28;20025;-73
2021/04/08 05:52:31;;;;;;;9.93;4.10;;;0.40;99.90;;;;;;5059621;28;20631;-73
2021/04/08 05:54:57;;;;;;;11.02;4.97;;;0.50;99.90;;;;;;5060499;28;20025;-73
2021/04/08 05:57:22;;;;;;;11.90;4.53;;;0.70;99.90;;;;;;5060924;28;20365;-73
2021/04/08 05:59:48;;;;;;;10.73;4.93;;;0.80;99.90;;;;;;5058901;28;20130;-73
2021/04/08 06:02:14;;;;;;;7.90;4.65;;;0.90;99.90;;;;;;5059986;28;20025;-73
2021/04/08 06:04:39;;;;;;;9.48;4.70;;;1.00;99.90;;;;;;5061285;28;20032;-73
2021/04/08 06:07:05;;;;;;;6.57;4.07;;;1.10;99.90;;;;;;5059278;28;20056;-73
2021/04/08 06:09:31;;;;;;;10.15;4.80;;;1.10;99.90;;;;;;5058682;28;20024;-73
2021/04/08 06:11:56;;;;;;;11.65;3.95;;;1.10;99.90;;;;;;5055461;28;20494;-73
2021/04/08 06:14:23;;;;;;;10.05;4.47;;;1.10;99.90;;;;;;5057381;28;20036;-73
2021/04/08 06:16:49;;;;;;;8.60;4.85;;;1.20;99.90;;;;;;5057792;28;20529;-73
2021/04/08 06:19:15;;;;;;;8.20;4.40;;;1.20;99.90;;;;;;5059333;28;20032;-73
2021/04/08 06:21:41;;;;;;;7.75;4.45;;;1.30;99.90;;;;;;5057510;28;20036;-73
2021/04/08 06:24:08;;;;;;;8.73;4.55;;;1.60;99.90;;;;;;5061420;28;20037;-73
2021/04/08 06:26:34;;;;;;;12.75;4.82;;;1.80;99.90;;;;;;5056422;28;20036;-73
2021/04/08 06:29:00;;;;;;;8.55;4.13;;;2.00;99.90;;;;;;5042875;28;20078;-73
2021/04/08 06:31:27;;;;;;;9.35;4.53;;;2.10;99.90;;;;;;5057596;28;20029;-73
2021/04/08 06:33:53;;;;;;;8.75;4.25;;;2.10;99.90;;;;;;5060372;28;20090;-73
2021/04/08 06:36:20;;;;;;;7.18;4.68;;;2.10;99.90;;;;;;5066488;28;20954;-73
2021/04/08 06:38:46;;;;;;;9.73;4.43;;;2.10;99.90;;;;;;5068818;28;20037;-73
2021/04/08 06:41:14;;;;;;;10.38;4.63;;;2.00;99.90;;;;;;5066722;28;20043;-72
2021/04/08 06:43:42;;;;;;;13.20;4.72;;;2.00;99.90;;;;;;5059609;28;20544;-73
2021/04/08 06:46:09;;;;;;;7.97;4.18;;;2.20;99.90;;;;;;5054918;28;20039;-72
2021/04/08 06:48:50;;;;;;;8.80;4.40;;;2.60;99.90;;;;;;5055018;28;20037;-73
2021/04/08 06:51:20;;;;;;;6.78;4.25;;;3.10;99.90;;;;;;5052448;28;20051;-73
2021/04/08 06:53:47;;;;;;;10.63;4.30;;;3.80;99.90;;;;;;5054928;28;20028;-73
2021/04/08 06:56:14;;;;;;;5.90;4.25;;;4.50;99.90;;;;;;5054989;28;20024;-73
2021/04/08 06:58:40;;;;;;;9.15;4.07;;;4.90;99.90;;;;;;5057861;28;20028;-73
2021/04/08 07:01:08;;;;;;;8.00;3.47;;;5.30;99.90;;;;;;5056787;28;20041;-73
2021/04/08 07:03:35;;;;;;;8.10;4.22;;;5.20;99.90;;;;;;5050043;28;20618;-72
2021/04/08 07:06:01;;;;;;;10.40;4.20;;;5.20;99.90;;;;;;5054609;28;20078;-72
2021/04/08 07:08:29;;;;;;;8.77;4.75;;;4.90;99.90;;;;;;5054867;28;20479;-72
2021/04/08 07:10:55;;;;;;;8.80;4.30;;;4.70;99.90;;;;;;5056839;28;20025;-72
2021/04/08 07:13:21;;;;;;;5.40;3.45;;;4.50;99.90;;;;;;5058482;28;20075;-72
2021/04/08 07:15:47;;;;;;;5.85;3.33;;;4.50;99.90;;;;;;5057343;28;20454;-72
2021/04/08 07:18:14;;;;;;;9.45;3.70;;;4.40;99.90;;;;;;5056883;28;20033;-72
2021/04/08 07:20:39;;;;;;;5.97;4.05;;;4.30;99.90;;;;;;5059356;28;20029;-72
2021/04/08 07:23:13;;;;;;;8.27;4.50;;;4.30;99.90;;;;;;5059754;28;20399;-72
2021/04/08 07:26:00;;;;;;;5.80;3.63;;;4.40;99.90;;;;;;5057555;28;20033;-72
2021/04/08 07:28:30;;;;;;;7.95;3.38;;;4.20;99.90;;;;;;5056361;28;20124;-72
2021/04/08 07:30:56;;;;;;;10.23;3.53;;;4.10;99.90;;;;;;5049772;28;20031;-72
2021/04/08 07:33:22;;;;;;;6.95;3.70;;;4.00;99.90;;;;;;5058150;28;20021;-72
2021/04/08 07:35:47;;;;;;;7.60;4.13;;;3.80;99.90;;;;;;5056498;28;20566;-72
2021/04/08 07:38:13;;;;;;;6.93;3.90;;;3.70;99.90;;;;;;5054756;28;20033;-72
2021/04/08 07:40:39;;;;;;;9.68;4.18;;;3.50;99.90;;;;;;5056719;28;20033;-72
2021/04/08 07:43:14;;;;;;;8.63;4.38;;;3.40;99.90;;;;;;5055479;28;20033;-72
2021/04/08 07:45:40;;;;;;;11.27;4.32;;;3.30;99.90;;;;;;5058316;28;20496;-72
2021/04/08 07:48:08;;;;;;;8.82;3.92;;;3.10;99.90;;;;;;5053069;28;20036;-72
2021/04/08 07:50:39;;;;;;;5.80;3.08;;;3.00;99.90;;;;;;5056920;28;20028;-72
2021/04/08 07:53:04;;;;;;;9.55;4.13;;;3.00;99.90;;;;;;5056750;28;20029;-72
2021/04/08 07:55:30;;;;;;;6.75;3.60;;;2.80;99.90;;;;;;5053130;28;20028;-72
2021/04/08 07:58:06;;;;;;;10.57;5.00;;;2.80;99.90;;;;;;5056980;28;20101;-72
2021/04/08 08:00:39;;;;;;;11.82;3.58;;;2.80;99.90;;;;;;5056545;28;20293;-72
2021/04/08 08:03:07;;;;;;;6.53;3.72;;;2.80;99.90;;;;;;5049651;28;20040;-72
2021/04/08 08:05:36;;;;;;;6.78;3.63;;;2.80;99.90;;;;;;5083809;28;20037;-72
2021/04/08 08:08:12;;;;;;;6.50;3.83;;;2.90;99.90;;;;;;5055422;28;20438;-72
2021/04/08 08:10:40;;;;;;;6.95;3.63;;;2.80;99.90;;;;;;5052347;28;20037;-72
2021/04/08 08:13:27;;;;;;;6.30;3.70;;;2.80;99.90;;;;;;5053848;28;20029;-72
2021/04/08 08:15:55;;;;;;;5.72;3.35;;;3.00;99.90;;;;;;5053327;28;20032;-72
2021/04/08 08:18:26;;;;;;;6.70;3.78;;;3.30;99.90;;;;;;5054852;28;20068;-72
2021/04/08 08:21:01;;;;;;;8.95;3.63;;;3.70;99.90;;;;;;5051070;28;20036;-72
2021/04/08 08:23:43;;;;;;;5.90;2.72;;;4.10;99.90;;;;;;5050446;28;20029;-72
2021/04/08 08:26:38;;;;;;;6.32;3.13;;;4.50;99.90;;;;;;5051166;28;20028;-72
2021/04/08 08:29:16;;;;;;;6.80;2.80;;;5.00;99.90;;;;;;5052980;28;20476;-72
2021/04/08 08:31:51;;;;;;;5.32;2.85;;;5.50;99.90;;;;;;5057874;28;20136;-72
2021/04/08 08:34:23;;;;;;;9.15;3.42;;;5.80;99.90;;;;;;5058164;28;20029;-73
2021/04/08 08:36:50;;;;;;;16.95;3.72;;;6.00;99.90;;;;;;5056905;28;20028;-73
2021/04/08 08:39:19;;;;;;;5.72;3.22;;;6.10;99.90;;;;;;5052329;28;20112;-74
2021/04/08 08:41:46;;;;;;;10.27;3.22;;;6.00;99.90;;;;;;5087186;28;20376;-73
2021/04/08 08:44:13;;;;;;;6.10;2.50;;;6.00;99.90;;;;;;5056578;28;20036;-73
2021/04/08 08:46:45;;;;;;;18.45;3.60;;;5.80;99.90;;;;;;5060678;28;20451;-73
2021/04/08 08:49:13;;;;;;;16.23;3.45;;;5.60;99.90;;;;;;5059876;28;20052;-73
2021/04/08 08:51:39;;;;;;;5.22;2.72;;;5.40;99.90;;;;;;5058203;28;20028;-74
2021/04/08 08:54:06;;;;;;;5.38;3.17;;;5.30;99.90;;;;;;5061126;28;20032;-74
2021/04/08 08:56:34;;;;;;;7.10;2.75;;;5.20;99.90;;;;;;5058765;28;20361;-73
2021/04/08 08:59:00;;;;;;;8.43;3.03;;;5.20;99.90;;;;;;5061874;28;20040;-73
2021/04/08 09:01:25;;;;;;;5.13;2.47;;;5.20;99.90;;;;;;5063041;28;20025;-73
2021/04/08 09:03:51;;;;;;;6.30;3.20;;;5.00;99.90;;;;;;5058727;28;20058;-74
2021/04/08 09:06:22;;;;;;;6.57;3.13;;;4.90;99.90;;;;;;5059811;28;20071;-74
2021/04/08 09:08:53;;;;;;;6.93;3.17;;;4.90;99.90;;;;;;5061339;28;20540;-73
2021/04/08 09:11:30;;;;;;;92.93;15.20;;;5.00;99.90;;;;;;5054747;28;20025;-74
2021/04/08 09:13:57;;;;;;;38.47;8.18;;;5.30;99.90;;;;;;5054672;28;20480;-74
2021/04/08 09:16:24;;;;;;;13.35;4.38;;;5.40;99.90;;;;;;5038677;28;20078;-74
2021/04/08 09:19:27;;;;;;;6.13;3.05;;;5.50;99.90;;;;;;5057177;28;20435;-73
2021/04/08 09:21:56;;;;;;;15.50;3.95;;;5.40;99.90;;;;;;5026819;28;20118;-73
2021/04/08 09:24:31;;;;;;;8.00;3.55;;;5.40;99.90;;;;;;5044363;28;20115;-73
2021/04/08 09:26:58;;;;;;;8.27;3.20;;;5.40;99.90;;;;;;5083724;28;20039;-74
2021/04/08 09:29:37;;;;;;;9.80;3.35;;;5.40;99.90;;;;;;5055970;28;20041;-74
2021/04/08 09:32:24;;;;;;;5.95;2.97;;;5.50;99.90;;;;;;5053913;28;20029;-73
2021/04/08 09:35:11;;;;;;;6.00;2.60;;;5.60;99.90;;;;;;5055413;28;20028;-73
2021/04/08 09:37:46;;;;;;;5.53;3.47;;;5.60;99.90;;;;;;5051556;28;20056;-73
2021/04/08 09:40:21;;;;;;;5.82;3.00;;;5.60;99.90;;;;;;5052697;28;20398;-73
2021/04/08 09:43:12;;;;;;;8.23;3.58;;;5.60;99.90;;;;;;5057784;28;20029;-74
2021/04/08 09:45:52;;;;;;;8.80;3.28;;;5.60;99.90;;;;;;5060240;28;20111;-74
2021/04/08 09:48:22;;;;;;;4.00;2.60;;;5.60;99.90;;;;;;5058407;28;20484;-73
2021/04/08 09:50:51;;;;;;;3.85;2.58;;;5.70;99.90;;;;;;5057450;28;20400;-74
2021/04/08 09:53:19;;;;;;;4.35;3.08;;;5.80;99.90;;;;;;5058029;28;20017;-74
2021/04/08 09:55:56;;;;;;;6.90;3.10;;;5.80;99.90;;;;;;5052989;28;20403;-73
2021/04/08 09:58:27;;;;;;;6.78;3.03;;;5.90;99.90;;;;;;5053994;28;20039;-73
2021/04/08 10:00:54;;;;;;;4.85;2.55;;;5.90;99.90;;;;;;5053192;28;20028;-73
2021/04/08 10:03:29;;;;;;;3.70;2.22;;;5.80;99.90;;;;;;5056802;28;20047;-73
2021/04/08 10:05:55;;;;;;;7.40;2.83;;;5.80;99.90;;;;;;5045826;28;20032;-73
2021/04/08 10:08:22;;;;;;;5.72;2.80;;;5.70;99.90;;;;;;5049881;28;20024;-73
2021/04/08 10:10:50;;;;;;;7.38;2.50;;;5.70;99.90;;;;;;5054292;28;20086;-73
2021/04/08 10:13:31;;;;;;;6.20;3.05;;;5.70;99.90;;;;;;5050034;28;20028;-74
2021/04/08 10:16:10;;;;;;;9.45;2.97;;;5.80;99.90;;;;;;5045240;28;20419;-72
2021/04/08 10:18:36;;;;;;;6.57;2.92;;;5.90;99.90;;;;;;5042115;28;20028;-73
2021/04/08 10:21:08;;;;;;;8.73;4.20;;;6.10;99.90;;;;;;5048852;28;20067;-73
2021/04/08 10:23:40;;;;;;;6.68;2.72;;;6.30;99.90;;;;;;5053204;28;20429;-73
2021/04/08 10:26:11;;;;;;;6.60;2.97;;;6.40;99.90;;;;;;5057268;28;20021;-73
2021/04/08 10:28:44;;;;;;;6.05;2.63;;;6.50;99.90;;;;;;5052978;28;20029;-73
2021/04/08 10:31:21;;;;;;;6.10;2.53;;;6.50;99.90;;;;;;5056858;28;20025;-72
2021/04/08 10:33:50;;;;;;;7.28;2.45;;;6.60;99.90;;;;;;5056297;28;20391;-73
2021/04/08 10:36:34;;;;;;;5.30;2.67;;;6.60;99.90;;;;;;5051194;28;20021;-73
2021/04/08 10:39:25;;;;;;;5.80;2.80;;;6.50;99.90;;;;;;5056766;28;20025;-73
2021/04/08 10:42:11;;;;;;;6.18;2.42;;;6.50;99.90;;;;;;5055201;28;20035;-72
2021/04/08 10:44:48;;;;;;;7.30;2.25;;;6.50;99.90;;;;;;5051536;28;20103;-73
2021/04/08 10:47:26;;;;;;;6.35;2.30;;;6.60;99.90;;;;;;5056623;28;20078;-72
2021/04/08 10:49:54;;;;;;;6.93;2.58;;;6.60;99.90;;;;;;5049613;28;20086;-73
2021/04/08 10:52:23;;;;;;;4.07;2.63;;;6.60;99.90;;;;;;5052195;28;20020;-72
2021/04/08 10:54:54;;;;;;;7.30;3.42;;;6.70;99.90;;;;;;5048093;28;20029;-72
2021/04/08 10:57:21;;;;;;;5.25;2.45;;;6.70;99.90;;;;;;5050136;28;20164;-72
2021/04/08 10:59:49;;;;;;;5.82;2.30;;;6.70;99.90;;;;;;5055865;28;20506;-72
2021/04/08 11:02:42;;;;;;;5.43;2.35;;;6.60;99.90;;;;;;5048499;28;20039;-72
2021/04/08 11:05:24;;;;;;;5.53;2.22;;;6.40;99.90;;;;;;5053692;28;20024;-72
2021/04/08 11:07:55;;;;;;;5.07;2.10;;;6.10;99.90;;;;;;5058377;28;20070;-72
2021/04/08 11:10:24;;;;;;;7.65;1.98;;;6.00;99.90;;;;;;5055603;28;20083;-72
2021/04/08 11:12:52;;;;;;;5.85;1.67;;;6.00;99.90;;;;;;5055886;28;20696;-73
2021/04/08 11:15:22;;;;;;;5.13;1.67;;;6.00;99.90;;;;;;5054491;28;20025;-72
2021/04/08 11:17:51;;;;;;;2.55;1.50;;;6.00;99.90;;;;;;5054444;28;20056;-72
2021/04/08 11:20:25;;;;;;;6.10;1.83;;;5.90;99.90;;;;;;5047204;28;20051;-73
2021/04/08 11:22:51;;;;;;;2.38;2.00;;;5.90;99.90;;;;;;5066700;28;20064;-73
2021/04/08 11:25:18;;;;;;;3.53;1.95;;;6.00;99.90;;;;;;5053093;28;20052;-72
2021/04/08 11:27:44;;;;;;;5.43;1.92;;;6.20;99.90;;;;;;5053111;28;20086;-72
2021/04/08 11:30:13;;;;;;;3.35;1.88;;;6.30;99.90;;;;;;5052347;28;20040;-71
2021/04/08 11:32:50;;;;;;;3.08;1.50;;;6.40;99.90;;;;;;5049694;28;20124;-72
2021/04/08 11:35:44;;;;;;;2.92;1.50;;;6.50;99.90;;;;;;5052486;28;20084;-72
2021/04/08 11:38:19;;;;;;;4.95;1.45;;;6.40;99.90;;;;;;5053320;28;20446;-72
2021/04/08 11:40:50;;;;;;;4.13;1.80;;;6.40;99.90;;;;;;5058899;28;20082;-72
2021/04/08 11:43:23;;;;;;;2.55;1.58;;;6.50;99.90;;;;;;5053602;28;20101;-72
2021/04/08 11:45:49;;;;;;;2.80;1.65;;;6.40;99.90;;;;;;5052336;28;20407;-72
2021/04/08 11:48:16;;;;;;;8.23;2.30;;;6.50;99.90;;;;;;5053335;28;20057;-72
2021/04/08 11:50:47;;;;;;;3.70;1.80;;;6.40;99.90;;;;;;5048028;28;20022;-72
2021/04/08 11:53:15;;;;;;;2.95;1.85;;;6.40;99.90;;;;;;5053722;28;20429;-72
2021/04/08 11:55:44;;;;;;;2.75;1.58;;;6.30;99.90;;;;;;5052183;28;20043;-73
2021/04/08 11:58:24;;;;;;;5.50;1.75;;;6.10;99.90;;;;;;5051130;28;20029;-72
2021/04/08 12:00:50;;;;;;;4.45;1.55;;;6.20;99.90;;;;;;5051616;28;20124;-72
2021/04/08 12:03:17;;;;;;;2.65;1.40;;;6.30;99.90;;;;;;5053932;28;20036;-72
2021/04/08 12:05:43;;;;;;;4.75;1.38;;;6.20;99.90;;;;;;5055064;28;20033;-73
2021/04/08 12:08:08;;;;;;;1.83;1.65;;;6.30;99.90;;;;;;5051535;28;20025;-73
2021/04/08 12:10:35;;;;;;;2.42;1.10;;;6.30;99.90;;;;;;5049387;28;20053;-73
2021/04/08 12:13:02;;;;;;;2.38;1.50;;;6.30;99.90;;;;;;5052869;28;20032;-73
2021/04/08 12:15:38;;;;;;;3.00;1.90;;;6.40;99.90;;;;;;5059720;28;20025;-73
2021/04/08 12:18:26;;;;;;;2.05;1.00;;;6.50;99.90;;;;;;5063222;28;20033;-73
2021/04/08 12:20:54;;;;;;;2.72;1.52;;;6.60;99.90;;;;;;5060991;28;20033;-73
2021/04/08 12:23:25;;;;;;;2.70;1.00;;;6.50;99.90;;;;;;5056180;28;20043;-73
2021/04/08 12:25:53;;;;;;;2.70;1.20;;;6.50;99.90;;;;;;5054488;28;20033;-73
2021/04/08 12:28:21;;;;;;;2.88;1.23;;;6.40;99.90;;;;;;5058607;28;20360;-73
2021/04/08 12:30:56;;;;;;;4.28;1.27;;;6.30;99.90;;;;;;5055190;28;20863;-73
2021/04/08 12:33:24;;;;;;;2.25;1.27;;;6.20;99.90;;;;;;5056632;28;20042;-73
2021/04/08 12:35:50;;;;;;;1.17;0.98;;;6.20;99.90;;;;;;5059682;28;20043;-73
2021/04/08 12:38:16;;;;;;;3.03;1.63;;;6.20;99.90;;;;;;5055429;28;20511;-73
2021/04/08 12:40:42;;;;;;;1.80;1.10;;;6.10;99.90;;;;;;5056632;28;20037;-73
2021/04/08 12:43:09;;;;;;;1.52;1.20;;;6.20;99.90;;;;;;5058192;28;20029;-73
2021/04/08 12:45:34;;;;;;;2.15;1.20;;;6.30;99.90;;;;;;5059269;28;20103;-73
2021/04/08 12:48:00;;;;;;;2.60;1.33;;;6.30;99.90;;;;;;5052464;28;20041;-73
2021/04/08 12:50:26;;;;;;;3.75;1.55;;;6.40;99.90;;;;;;5056003;28;20052;-73
2021/04/08 12:52:53;;;;;;;4.22;1.20;;;6.40;99.90;;;;;;5054860;28;20033;-73
2021/04/08 12:55:19;;;;;;;2.92;1.08;;;6.30;99.90;;;;;;5051160;28;20020;-73
2021/04/08 12:57:45;;;;;;;1.13;1.00;;;6.20;99.90;;;;;;5057996;28;20047;-73
2021/04/08 13:00:11;;;;;;;3.35;1.55;;;6.10;99.90;;;;;;5056930;28;20029;-73
2021/04/08 13:02:38;;;;;;;1.80;1.10;;;5.90;99.90;;;;;;5054597;28;20026;-73
2021/04/08 13:05:05;;;;;;;2.80;1.60;;;5.70;99.90;;;;;;5054606;28;20037;-73
2021/04/08 13:07:31;;;;;;;2.33;1.60;;;5.60;99.90;;;;;;5052071;28;20040;-73